Hauptseite
METAR-TAF:

METAR-TAF

Flughäfen :

Baden-Baden, Deutschland

Flughafen Karlsruhe/Baden-Baden

Breite: 48-46-43N, Länge: 008-04-47E, Höhe: 124 m

Beobachtung

Neuester Wetterbericht von vor 36 Minuten, um 13:20 UTC
Wind 20 kt aus Nordost
Temperatur 5°C
Luftfeuchtigkeit 30%
Luftdruck 1016 hPa
Sichtweite 10 km oder mehr
keine Wolken unter 1500 m und keine Kumulonimbus oder Gewitterwolken

METAR: EDSB 241320Z 04020KT CAVOK 05/M11 Q1016

Zeit: 14:56 (13:56 UTC)

Prognose

Neuester Wetterbericht von vor 2 Stunden und 56 Minuten, um 11:00 UTC
Gültige Prognose vom 24 um 12 UTC bis 25 um 12 UTC
Wind 15 kt aus Nordost, Böen bis zu 25 kt
Sichtweite 10 km oder mehr
keine Wolken unter 1500 m und keine Kumulonimbus oder Gewitterwolken
Zeitweise
vom 24 um 20 UTC bis 25 um 08 UTC
Wind 12 kt aus Nordost

TAF: EDSB 241100Z 2412/2512 04015G25KT CAVOK TEMPO 2420/2508 04012KT

Wetterbeobachtungen und Prognosen von mehr als 4000 Flughäfen (METAR und TAF Bericht).

Die verfügbaren Stationen werden durch gelbe und rote Markierungen auf der Karte dargestellt.

Führen Sie die Maus auf sie, um den Namen der Station zu sehen.

Darauf klicken, um die Beobachtung von Wetterbeobachtungen und Prognosen zu sehen.

Um die Karte zu ändern : klicken Sie auf den grünen Tasten mit einem schwarzen Kreuz Zum Vergrößern, auf den grünen Button mit einem Gedankenstrich zu verkleinern, oder auf die grünen Pfeile für benachbarte Karten.


METAR-TAF: